Terminal Aerodrome Forecast
Issued by NWS

Home | Current Version | Previous Version | Graphics & Text | Print | Product List | Glossary On
Versions: 1 2 3 4 5 6 7 8 9 10 11 12 13
000
FTUS41 KCLE 281100
TAFFDY
TAF
KFDY 281135Z 2812/2912 20012KT P6SM BKN050 OVC120 WS020/22045KT
     FM281400 23015G25KT 5SM -SHRA VCTS OVC040CB
     FM281800 27015G25KT P6SM -SHRA OVC025
     FM282200 27008KT P6SM BKN035=

USA.gov is the U.S. government's official web portal to all federal, state and local government web resources and services.